Time;durP1;ratioP1;P1;durP2;ratioP2;P2;SDS_P1;SDS_P2;PMS_P1;PMS_P2;Temp;Humidity;BMP_temperature;BMP_pressure;BME280_temperature;BME280_humidity;BME280_pressure;Samples;Min_cycle;Max_cycle;Signal;HPM_P1;HPM_P2
2023/03/26 00:01:48;;;;;;;31.35;6.45;;;;;;;8.79;82.63;100634.06;5113420;28;20035;-84
2023/03/26 00:04:18;;;;;;;22.70;4.25;;;;;;;8.76;82.84;100644.72;5116462;28;20528;-84
2023/03/26 00:06:43;;;;;;;27.80;5.25;;;;;;;8.67;83.11;100630.13;5114382;27;20486;-85
2023/03/26 00:09:11;;;;;;;23.70;4.82;;;;;;;8.71;82.65;100644.03;5136775;27;20026;-84
2023/03/26 00:11:37;;;;;;;22.00;4.03;;;;;;;8.68;82.87;100639.75;5115161;27;20571;-84
2023/03/26 00:14:02;;;;;;;32.17;5.32;;;;;;;8.67;83.18;100643.28;5129122;27;20106;-84
2023/03/26 00:16:30;;;;;;;21.60;5.15;;;;;;;8.61;82.66;100643.50;5127976;27;20026;-84
2023/03/26 00:18:56;;;;;;;23.65;4.43;;;;;;;8.60;82.94;100651.47;5135244;27;20023;-84
2023/03/26 00:21:27;;;;;;;31.38;4.10;;;;;;;8.54;82.80;100651.69;5132235;27;20470;-85
2023/03/26 00:23:54;;;;;;;23.00;5.05;;;;;;;8.47;82.91;100643.13;5118152;27;20027;-84
2023/03/26 00:26:20;;;;;;;19.88;4.88;;;;;;;8.46;82.79;100638.75;5121888;27;20035;-84
2023/03/26 00:28:46;;;;;;;24.70;4.45;;;;;;;8.48;82.85;100644.81;5124860;27;20027;-84
2023/03/26 00:31:13;;;;;;;26.38;3.90;;;;;;;8.46;82.81;100641.41;5124738;27;20030;-84
2023/03/26 00:33:40;;;;;;;21.83;4.05;;;;;;;8.42;82.39;100634.50;5125451;27;20420;-84
2023/03/26 00:36:09;;;;;;;25.10;5.93;;;;;;;8.34;82.69;100623.34;5126443;27;20517;-84
2023/03/26 00:38:37;;;;;;;23.20;4.03;;;;;;;8.31;82.67;100629.59;5133197;27;20027;-84
2023/03/26 00:41:04;;;;;;;21.27;3.97;;;;;;;8.28;82.77;100629.69;5128322;27;20469;-84
2023/03/26 00:43:31;;;;;;;21.95;4.43;;;;;;;8.25;82.93;100623.66;5126754;27;20027;-84
2023/03/26 00:45:57;;;;;;;20.30;4.60;;;;;;;8.16;82.68;100614.31;5121550;27;20490;-84
2023/03/26 00:48:23;;;;;;;26.25;4.93;;;;;;;8.15;83.06;100616.06;5125929;27;20513;-84
2023/03/26 00:50:49;;;;;;;26.38;4.45;;;;;;;8.12;83.39;100616.19;5128406;27;20030;-84
2023/03/26 00:53:16;;;;;;;21.92;4.90;;;;;;;8.10;83.42;100614.50;5120316;27;20066;-84
2023/03/26 00:55:43;;;;;;;36.90;5.35;;;;;;;8.13;83.96;100609.16;5127583;27;20490;-84
2023/03/26 00:58:11;;;;;;;28.63;4.93;;;;;;;8.18;83.99;100612.47;5125892;27;20023;-85
2023/03/26 01:00:57;;;;;;;18.67;4.00;;;;;;;8.18;83.58;100605.44;5129777;27;20030;-84
2023/03/26 01:03:24;;;;;;;26.48;4.03;;;;;;;8.17;83.25;100608.13;5119587;27;20116;-84
2023/03/26 01:06:03;;;;;;;18.77;4.47;;;;;;;8.17;83.49;100606.34;5135844;27;20039;-84
2023/03/26 01:08:44;;;;;;;31.25;4.90;;;;;;;8.18;83.73;100604.56;5131073;27;20011;-84
2023/03/26 01:11:31;;;;;;;24.42;4.03;;;;;;;8.19;83.64;100590.50;5124601;27;20050;-84
2023/03/26 01:14:06;;;;;;;24.60;3.95;;;;;;;8.16;83.49;100577.44;5128423;27;20443;-84
2023/03/26 01:16:40;;;;;;;20.98;3.90;;;;;;;8.13;83.36;100570.50;5127848;27;20038;-84
2023/03/26 01:19:15;;;;;;;32.30;6.38;;;;;;;8.09;83.62;100578.56;5121122;27;20023;-84
2023/03/26 01:21:40;;;;;;;23.70;4.07;;;;;;;7.98;83.69;100568.41;5121311;27;20045;-84
2023/03/26 01:24:08;;;;;;;26.58;4.40;;;;;;;7.98;83.97;100567.53;5122434;27;20016;-84
2023/03/26 01:26:49;;;;;;;27.52;4.40;;;;;;;8.01;84.13;100567.41;5130647;27;20031;-84
2023/03/26 01:29:18;;;;;;;30.70;5.05;;;;;;;8.01;83.92;100556.91;5122441;27;20095;-85
2023/03/26 01:32:08;;;;;;;23.63;4.03;;;;;;;8.05;83.86;100555.88;5128854;27;20023;-84
2023/03/26 01:34:51;;;;;;;24.00;4.22;;;;;;;8.01;84.03;100549.84;5100474;27;20100;-84
2023/03/26 01:37:57;;;;;;;20.98;4.13;;;;;;;8.02;83.47;100551.59;5123299;27;20510;-84
2023/03/26 01:40:41;;;;;;;32.33;4.43;;;;;;;8.00;83.73;100539.38;5072370;27;20458;-85
2023/03/26 01:43:10;;;;;;;26.15;5.13;;;;;;;7.96;83.52;100527.25;5128108;27;20055;-84
2023/03/26 01:45:40;;;;;;;24.23;5.45;;;;;;;7.93;84.00;100536.13;5125603;27;20469;-85
2023/03/26 01:48:06;;;;;;;20.27;3.00;;;;;;;7.89;84.12;100539.75;5124507;27;20596;-84
2023/03/26 01:50:31;;;;;;;30.27;4.40;;;;;;;7.82;83.87;100528.56;5126061;27;20023;-84
2023/03/26 01:52:56;;;;;;;22.00;4.93;;;;;;;7.79;84.25;100528.69;5125729;27;20397;-84
2023/03/26 01:55:32;;;;;;;20.20;4.20;;;;;;;7.82;84.25;100533.81;5123658;27;20027;-85
2023/03/26 01:58:25;;;;;;;18.35;3.90;;;;;;;7.87;84.15;100529.25;5122858;27;20331;-84
2023/03/26 02:01:05;;;;;;;19.77;3.47;;;;;;;7.81;84.11;100523.34;5126766;27;20394;-84
2023/03/26 02:03:38;;;;;;;26.80;3.92;;;;;;;7.88;83.82;100523.13;5125739;27;20484;-84
2023/03/26 02:06:33;;;;;;;24.10;3.35;;;;;;;7.83;84.13;100519.78;5124356;27;20459;-84
2023/03/26 02:09:06;;;;;;;18.30;3.70;;;;;;;7.81;83.48;100507.56;5113238;27;20612;-85
2023/03/26 02:11:33;;;;;;;21.55;4.25;;;;;;;7.81;84.58;100510.19;5126187;27;20130;-84
2023/03/26 02:13:58;;;;;;;24.50;4.43;;;;;;;7.77;84.13;100506.81;5128131;27;20030;-84
2023/03/26 02:16:23;;;;;;;31.38;5.13;;;;;;;7.72;84.12;100500.00;5118312;27;20475;-84
2023/03/26 02:18:54;;;;;;;24.15;4.85;;;;;;;7.74;84.17;100501.66;5117082;27;20051;-84
2023/03/26 02:21:22;;;;;;;24.05;4.93;;;;;;;7.72;84.24;100497.34;5121693;27;20023;-85
2023/03/26 02:23:56;;;;;;;26.17;3.72;;;;;;;7.71;83.59;100490.38;5120092;27;20257;-84
2023/03/26 02:26:22;;;;;;;14.65;3.85;;;;;;;7.71;83.90;100495.63;5119812;27;20027;-84
2023/03/26 02:28:48;;;;;;;24.70;3.75;;;;;;;8.08;82.12;100480.28;5117233;27;20508;-84
2023/03/26 02:31:15;;;;;;;21.88;4.63;;;;;;;8.05;82.30;100477.75;5119047;27;20023;-84
2023/03/26 02:33:43;;;;;;;19.45;4.85;;;;;;;8.10;81.49;100483.72;5114490;27;20050;-84
2023/03/26 02:36:11;;;;;;;22.95;5.55;;;;;;;8.18;82.16;100475.53;5119383;27;20164;-84
2023/03/26 02:38:36;;;;;;;30.92;6.30;;;;;;;8.28;81.82;100474.28;5118922;27;20390;-84
2023/03/26 02:41:03;;;;;;;20.63;5.15;;;;;;;8.46;80.98;100475.44;5124433;27;20027;-84
2023/03/26 02:43:28;;;;;;;22.77;5.10;;;;;;;8.22;81.52;100463.13;5125957;27;20039;-84
2023/03/26 02:45:54;;;;;;;19.88;5.40;;;;;;;8.22;81.43;100466.63;5118308;27;20036;-84
2023/03/26 02:48:19;;;;;;;30.58;5.53;;;;;;;8.19;81.81;100459.69;5122008;27;20035;-84
2023/03/26 02:50:45;;;;;;;23.20;4.63;;;;;;;8.22;81.78;100460.50;5135536;27;20014;-84
2023/03/26 02:53:10;;;;;;;19.00;4.72;;;;;;;8.32;81.06;100457.47;5128228;27;20073;-84
2023/03/26 02:55:37;;;;;;;22.35;4.55;;;;;;;8.25;81.60;100447.22;5119221;27;20062;-85
2023/03/26 02:58:02;;;;;;;21.17;4.18;;;;;;;8.28;81.58;100440.06;5125067;27;20026;-84
2023/03/26 03:00:27;;;;;;;29.98;5.78;;;;;;;8.29;81.10;100435.66;5115791;27;20050;-84
2023/03/26 03:02:53;;;;;;;29.55;5.07;;;;;;;8.28;81.02;100437.41;5125166;27;20022;-84
2023/03/26 03:05:18;;;;;;;25.45;5.68;;;;;;;8.29;81.43;100430.38;5126807;27;20037;-84
2023/03/26 03:07:45;;;;;;;21.00;5.03;;;;;;;8.22;82.23;100426.28;5135816;27;20023;-84
2023/03/26 03:10:12;;;;;;;23.25;6.05;;;;;;;8.25;81.70;100426.13;5134076;27;20043;-84
2023/03/26 03:12:41;;;;;;;24.13;4.70;;;;;;;8.28;81.62;100412.88;5113891;27;20494;-84
2023/03/26 03:15:07;;;;;;;20.88;4.93;;;;;;;8.32;81.46;100411.84;5119189;27;20083;-85
2023/03/26 03:17:33;;;;;;;18.00;4.63;;;;;;;8.37;81.02;100417.81;5130282;27;20031;-84
2023/03/26 03:19:58;;;;;;;23.40;4.95;;;;;;;8.39;81.36;100410.72;5129990;27;20504;-84
2023/03/26 03:22:24;;;;;;;24.45;5.47;;;;;;;8.40;81.16;100399.28;5129328;27;20031;-84
2023/03/26 03:24:50;;;;;;;19.23;5.45;;;;;;;8.42;81.21;100400.91;5110895;28;20038;-84
2023/03/26 03:27:19;;;;;;;23.55;4.32;;;;;;;8.45;80.93;100404.38;5118538;27;20020;-84
2023/03/26 03:29:45;;;;;;;24.63;5.18;;;;;;;8.40;81.22;100391.38;5122825;27;20031;-84
2023/03/26 03:32:10;;;;;;;15.10;4.22;;;;;;;8.43;81.04;100397.34;5130480;27;20021;-84
2023/03/26 03:34:37;;;;;;;23.27;4.13;;;;;;;8.51;80.79;100393.59;5131220;28;20031;-84
2023/03/26 03:37:03;;;;;;;22.75;5.18;;;;;;;8.54;80.84;100396.13;5120716;27;20486;-84
2023/03/26 03:39:29;;;;;;;20.35;3.80;;;;;;;8.53;81.08;100389.94;5128168;27;20407;-84
2023/03/26 03:41:54;;;;;;;16.77;4.13;;;;;;;8.53;80.85;100379.41;5109304;28;20026;-85
2023/03/26 03:44:19;;;;;;;17.98;3.33;;;;;;;8.62;80.64;100386.97;5118584;27;20055;-84
2023/03/26 03:46:45;;;;;;;15.45;3.08;;;;;;;8.64;81.32;100381.66;5131530;27;20402;-84
2023/03/26 03:49:10;;;;;;;22.02;4.82;;;;;;;8.60;81.27;100382.69;5133220;27;20026;-85
2023/03/26 03:51:35;;;;;;;14.00;2.95;;;;;;;8.58;81.25;100374.84;5131516;27;20431;-84
2023/03/26 03:54:02;;;;;;;13.60;2.97;;;;;;;8.63;82.00;100378.16;5133487;27;20026;-85
2023/03/26 03:56:28;;;;;;;14.90;3.13;;;;;;;8.59;82.01;100373.94;5127356;27;20027;-85
2023/03/26 03:58:53;;;;;;;20.15;2.97;;;;;;;8.62;82.41;100371.16;5130823;27;20476;-84
2023/03/26 04:01:21;;;;;;;10.55;2.53;;;;;;;8.66;82.37;100377.16;5119072;27;20039;-84
2023/03/26 04:03:47;;;;;;;12.02;2.80;;;;;;;8.69;82.36;100364.72;5131644;27;20035;-85
2023/03/26 04:06:12;;;;;;;8.95;2.47;;;;;;;8.67;82.67;100357.78;5133399;27;20080;-84
2023/03/26 04:08:38;;;;;;;15.60;2.83;;;;;;;8.63;82.60;100356.22;5134395;27;20102;-84
2023/03/26 04:11:04;;;;;;;20.20;2.72;;;;;;;8.63;82.99;100351.81;5125521;27;20065;-85
2023/03/26 04:13:30;;;;;;;11.13;2.53;;;;;;;8.69;82.93;100354.19;5127635;27;20128;-84
2023/03/26 04:15:55;;;;;;;13.88;3.10;;;;;;;8.60;83.36;100341.38;5134150;27;20126;-84
2023/03/26 04:18:21;;;;;;;20.30;3.97;;;;;;;8.60;83.50;100345.81;5130791;27;20027;-84
2023/03/26 04:20:46;;;;;;;20.58;3.53;;;;;;;8.64;83.97;100342.13;5126598;27;20421;-84
2023/03/26 04:23:13;;;;;;;17.90;3.15;;;;;;;8.58;84.39;100331.81;5128319;27;20065;-84
2023/03/26 04:25:47;;;;;;;13.63;2.50;;;;;;;8.56;84.80;100328.41;5128774;27;20390;-85
2023/03/26 04:28:25;;;;;;;19.23;2.67;;;;;;;8.59;84.41;100315.97;5126833;27;20032;-85
2023/03/26 04:30:52;;;;;;;11.25;2.60;;;;;;;8.58;84.14;100306.34;5142582;27;20031;-84
2023/03/26 04:33:19;;;;;;;14.43;2.65;;;;;;;8.50;84.96;100303.16;5125819;27;20020;-84
2023/03/26 04:35:47;;;;;;;13.02;2.03;;;;;;;8.47;84.65;100297.16;5123317;27;20078;-84
2023/03/26 04:38:15;;;;;;;9.45;2.40;;;;;;;8.50;84.27;100297.03;5130415;27;20061;-84
2023/03/26 04:40:42;;;;;;;11.80;2.63;;;;;;;8.49;84.04;100290.91;5114997;27;20380;-84
2023/03/26 04:43:12;;;;;;;10.73;2.13;;;;;;;8.49;84.09;100288.28;5122807;27;20398;-84
2023/03/26 04:45:38;;;;;;;13.80;2.47;;;;;;;8.50;84.25;100283.88;5125354;27;20075;-84
2023/03/26 04:48:06;;;;;;;9.90;2.47;;;;;;;8.49;85.42;100288.28;5128749;27;20046;-84
2023/03/26 04:50:31;;;;;;;14.38;3.25;;;;;;;8.51;85.08;100277.66;5120177;27;20486;-84
2023/03/26 04:52:57;;;;;;;10.65;3.15;;;;;;;8.48;85.12;100275.16;5115859;27;20026;-84
2023/03/26 04:55:30;;;;;;;10.52;2.33;;;;;;;8.48;84.59;100269.88;5128579;27;20023;-84
2023/03/26 04:57:58;;;;;;;8.23;2.10;;;;;;;8.42;85.09;100257.81;5125367;27;20027;-85
2023/03/26 05:00:25;;;;;;;12.80;2.97;;;;;;;8.44;84.94;100261.28;5121659;27;20030;-84
2023/03/26 05:02:54;;;;;;;10.73;2.83;;;;;;;8.48;85.27;100262.81;5131630;27;20031;-84
2023/03/26 05:05:20;;;;;;;13.43;2.78;;;;;;;8.45;84.66;100254.22;5134904;27;20047;-84
2023/03/26 05:07:46;;;;;;;12.10;2.95;;;;;;;8.41;84.47;100246.44;5125259;27;20043;-84
2023/03/26 05:10:13;;;;;;;11.00;3.78;;;;;;;8.45;83.62;100246.31;5129610;27;20100;-84
2023/03/26 05:12:39;;;;;;;13.05;3.75;;;;;;;8.39;84.09;100235.13;5112831;27;20016;-84
2023/03/26 05:15:05;;;;;;;14.52;2.50;;;;;;;8.43;84.26;100249.00;5127772;27;20386;-84
2023/03/26 05:17:33;;;;;;;10.70;2.45;;;;;;;8.44;83.83;100240.19;5130595;27;20032;-84
2023/03/26 05:19:58;;;;;;;14.38;3.30;;;;;;;8.48;84.17;100241.75;5125994;27;20046;-84
2023/03/26 05:22:24;;;;;;;9.23;2.67;;;;;;;8.44;84.26;100232.28;5130919;27;20116;-84
2023/03/26 05:24:50;;;;;;;11.30;2.63;;;;;;;8.41;84.12;100229.78;5118065;27;20509;-84
2023/03/26 05:27:15;;;;;;;11.77;3.00;;;;;;;8.41;84.28;100219.25;5132988;27;20026;-84
2023/03/26 05:29:41;;;;;;;13.48;2.60;;;;;;;8.49;84.09;100219.78;5127364;27;20027;-84
2023/03/26 05:32:08;;;;;;;10.95;2.97;;;;;;;8.47;84.31;100208.44;5131286;27;20035;-84
2023/03/26 05:34:33;;;;;;;12.50;2.85;;;;;;;8.49;84.04;100211.88;5132390;27;20438;-84
2023/03/26 05:36:59;;;;;;;9.77;2.50;;;;;;;8.49;83.78;100196.06;5132015;27;20102;-84
2023/03/26 05:39:25;;;;;;;10.70;2.25;;;;;;;8.52;83.83;100195.94;5129191;27;20110;-84
2023/03/26 05:41:51;;;;;;;11.90;2.95;;;;;;;8.52;84.34;100190.66;5122683;27;20473;-84
2023/03/26 05:44:17;;;;;;;13.23;2.60;;;;;;;8.52;84.53;100197.72;5132137;27;20299;-84
2023/03/26 05:46:42;;;;;;;13.23;2.72;;;;;;;8.60;84.65;100198.25;5130267;27;20109;-84
2023/03/26 05:49:07;;;;;;;13.43;2.85;;;;;;;8.61;84.46;100186.78;5130895;27;20581;-84
2023/03/26 05:51:33;;;;;;;14.10;2.80;;;;;;;8.60;84.62;100191.19;5133420;27;20062;-84
2023/03/26 05:53:58;;;;;;;9.88;2.78;;;;;;;8.62;84.44;100183.22;5120380;27;20033;-84
2023/03/26 05:56:23;;;;;;;14.20;3.05;;;;;;;8.71;84.23;100185.47;5119611;27;20023;-84
2023/03/26 05:58:50;;;;;;;9.43;3.00;;;;;;;8.55;85.14;100184.41;5124884;27;20055;-84
2023/03/26 06:01:15;;;;;;;10.45;2.70;;;;;;;8.52;85.08;100174.84;5123284;27;20027;-84
2023/03/26 06:03:43;;;;;;;16.55;2.63;;;;;;;8.55;84.83;100173.88;5122918;27;20027;-84
2023/03/26 06:06:14;;;;;;;18.38;3.13;;;;;;;8.58;84.37;100177.25;5138053;27;20033;-84
2023/03/26 06:08:45;;;;;;;13.65;3.03;;;;;;;8.60;84.70;100169.28;5129888;27;20023;-84
2023/03/26 06:11:11;;;;;;;12.00;2.13;;;;;;;8.66;84.73;100174.25;5134788;27;20143;-84
2023/03/26 06:13:37;;;;;;;12.88;2.33;;;;;;;8.64;85.20;100176.97;5122023;27;20037;-84
2023/03/26 06:16:04;;;;;;;15.07;3.20;;;;;;;8.60;85.46;100170.13;5119128;27;20480;-84
2023/03/26 06:18:29;;;;;;;15.27;2.60;;;;;;;8.61;85.04;100166.56;5114302;27;20088;-84
2023/03/26 06:20:55;;;;;;;9.32;2.20;;;;;;;8.61;85.02;100158.66;5119133;27;20420;-84
2023/03/26 06:23:21;;;;;;;9.68;2.10;;;;;;;8.65;84.80;100154.13;5135239;27;20110;-84
2023/03/26 06:25:46;;;;;;;10.27;2.90;;;;;;;8.74;84.42;100156.34;5132085;27;20027;-84
2023/03/26 06:28:12;;;;;;;12.82;2.63;;;;;;;8.80;84.23;100157.84;5135763;27;20509;-84
2023/03/26 06:30:38;;;;;;;9.15;2.60;;;;;;;8.75;84.51;100144.88;5121908;27;20031;-84
2023/03/26 06:33:03;;;;;;;8.07;2.50;;;;;;;8.77;84.39;100147.47;5115119;27;20031;-84
2023/03/26 06:35:29;;;;;;;16.33;4.25;;;;;;;8.81;84.55;100151.66;5119111;27;20027;-84
2023/03/26 06:37:55;;;;;;;11.90;2.42;;;;;;;8.80;84.64;100147.31;5123021;27;20032;-84
2023/03/26 06:40:21;;;;;;;13.90;2.60;;;;;;;8.82;84.22;100146.34;5126061;27;20031;-84
2023/03/26 06:42:46;;;;;;;7.20;1.77;;;;;;;8.81;84.07;100139.38;5129118;27;20091;-84
2023/03/26 06:45:12;;;;;;;10.40;2.78;;;;;;;8.82;83.93;100148.13;5130220;27;20468;-84
2023/03/26 06:47:37;;;;;;;12.95;3.00;;;;;;;8.87;84.14;100143.50;5128270;27;20062;-84
2023/03/26 06:50:03;;;;;;;12.80;3.33;;;;;;;8.86;84.39;100147.91;5129536;27;20021;-84
2023/03/26 06:52:29;;;;;;;14.40;3.28;;;;;;;8.85;84.15;100147.97;5128876;27;20019;-84
2023/03/26 06:54:54;;;;;;;16.42;3.55;;;;;;;8.85;84.07;100151.44;5130957;27;20045;-84
2023/03/26 06:57:20;;;;;;;12.55;3.05;;;;;;;8.90;84.16;100154.75;5130335;27;20023;-84
2023/03/26 06:59:45;;;;;;;10.45;2.83;;;;;;;8.91;84.49;100153.00;5128002;27;20712;-84
2023/03/26 07:02:10;;;;;;;12.82;3.17;;;;;;;8.90;84.08;100149.47;5119725;27;20084;-84
2023/03/26 07:04:36;;;;;;;9.77;3.20;;;;;;;8.94;84.21;100151.03;5130094;27;20076;-83
2023/03/26 07:07:02;;;;;;;16.42;2.75;;;;;;;8.93;84.36;100149.34;5126948;27;20144;-84
2023/03/26 07:09:29;;;;;;;13.68;3.00;;;;;;;8.91;85.14;100150.34;5128747;27;20023;-83
2023/03/26 07:11:55;;;;;;;13.27;2.75;;;;;;;8.80;84.64;100148.16;5129545;27;20042;-83
2023/03/26 07:14:20;;;;;;;14.18;4.22;;;;;;;8.76;85.49;100145.72;5129844;27;20519;-84
2023/03/26 07:16:46;;;;;;;13.40;3.13;;;;;;;8.76;85.34;100153.63;5127775;27;20126;-84
2023/03/26 07:19:11;;;;;;;16.67;4.60;;;;;;;8.74;85.25;100134.41;5130093;27;20284;-84
2023/03/26 07:21:36;;;;;;;11.70;3.97;;;;;;;8.77;85.59;100131.66;5129395;27;20019;-84
2023/03/26 07:24:02;;;;;;;10.75;3.10;;;;;;;8.76;85.52;100130.78;5119968;27;20027;-84
2023/03/26 07:26:50;;;;;;;17.52;4.30;;;;;;;8.83;85.72;100131.38;5118565;27;20023;-84
2023/03/26 07:29:36;;;;;;;12.82;3.92;;;;;;;8.80;85.66;100134.13;5120333;27;20463;-84
2023/03/26 07:32:22;;;;;;;10.73;2.75;;;;;;;8.77;86.03;100121.13;5125196;27;20065;-84
2023/03/26 07:35:09;;;;;;;17.13;3.55;;;;;;;8.82;86.34;100129.66;5125554;27;20454;-85
2023/03/26 07:37:44;;;;;;;10.30;2.78;;;;;;;8.84;86.17;100125.16;5127341;27;20031;-84
2023/03/26 07:40:42;;;;;;;11.45;3.58;;;;;;;8.85;86.58;100116.34;5122455;28;20022;-84
2023/03/26 07:43:38;;;;;;;11.73;3.00;;;;;;;8.93;86.86;100119.50;5115771;27;20028;-84
2023/03/26 07:46:04;;;;;;;9.73;3.13;;;;;;;8.84;86.31;100122.53;5112629;28;20028;-84
2023/03/26 07:48:41;;;;;;;10.05;3.33;;;;;;;8.88;86.34;100121.47;5120437;27;20016;-85
2023/03/26 07:51:07;;;;;;;11.77;3.28;;;;;;;8.86;86.58;100113.66;5115396;27;20023;-85
2023/03/26 07:53:33;;;;;;;6.50;3.30;;;;;;;8.91;86.12;100118.72;5128182;27;20076;-84
2023/03/26 07:56:05;;;;;;;9.73;3.55;;;;;;;8.90;86.27;100119.63;5125317;27;20023;-84
2023/03/26 07:58:48;;;;;;;11.07;3.08;;;;;;;8.92;86.36;100116.00;5117456;27;20287;-85
2023/03/26 08:01:55;;;;;;;9.13;3.70;;;;;;;8.98;86.95;100114.00;5122859;28;20161;-85
2023/03/26 08:04:30;;;;;;;15.30;3.25;;;;;;;8.99;86.52;100110.44;5121735;28;20056;-84
2023/03/26 08:07:02;;;;;;;8.35;4.05;;;;;;;9.01;87.30;100113.88;5123395;27;20149;-85
2023/03/26 08:09:46;;;;;;;;;;;;;;;9.18;86.10;100113.94;5123392;27;20482;-85
2023/03/26 08:12:23;;;;;;;10.20;3.55;;;;;;;9.13;86.66;100108.88;5137332;27;19922;-85
2023/03/26 08:15:21;;;;;;;13.63;3.80;;;;;;;9.18;86.50;100106.88;5124640;27;20486;-84
2023/03/26 08:17:54;;;;;;;14.02;4.03;;;;;;;9.17;86.67;100102.53;5110354;27;20024;-85
2023/03/26 08:20:36;;;;;;;11.27;3.58;;;;;;;9.30;86.66;100109.91;5128198;27;20118;-85
2023/03/26 08:23:50;;;;;;;10.63;3.15;;;;;;;9.36;86.38;100105.19;5110760;28;20087;-85
2023/03/26 08:26:24;;;;;;;11.27;3.08;;;;;;;9.44;86.79;100107.47;5096738;28;20048;-85
2023/03/26 08:29:04;;;;;;;11.82;2.75;;;;;;;9.52;86.13;100110.59;5132023;27;20084;-84
2023/03/26 08:31:34;;;;;;;13.55;3.30;;;;;;;9.50;85.88;100107.16;5128403;27;20055;-84
2023/03/26 08:34:00;;;;;;;11.30;3.45;;;;;;;9.50;85.79;100101.91;5129895;27;20030;-85
2023/03/26 08:36:26;;;;;;;6.53;2.45;;;;;;;9.49;85.62;100094.91;5134895;27;20411;-84
2023/03/26 08:38:51;;;;;;;11.88;2.80;;;;;;;9.54;85.46;100098.19;5128977;27;20034;-85
2023/03/26 08:41:36;;;;;;;8.50;3.00;;;;;;;9.57;86.07;100103.31;5130570;27;20041;-85
2023/03/26 08:44:28;;;;;;;8.60;2.67;;;;;;;9.64;85.41;100099.44;5133385;27;20033;-85
2023/03/26 08:47:15;;;;;;;10.55;2.67;;;;;;;9.68;85.35;100098.38;5133361;27;20034;-85
2023/03/26 08:50:14;;;;;;;8.32;2.47;;;;;;;9.75;85.20;100103.38;5124698;27;20032;-85
2023/03/26 08:52:39;;;;;;;9.10;2.63;;;;;;;9.73;84.78;100103.44;5129082;27;20485;-85
2023/03/26 08:55:29;;;;;;;10.90;3.77;;;;;;;9.77;84.10;100098.88;5122006;27;20027;-85
2023/03/26 08:58:25;;;;;;;7.97;2.60;;;;;;;9.86;84.58;100095.78;5131029;27;20288;-85
2023/03/26 09:01:03;;;;;;;9.52;2.70;;;;;;;9.86;84.42;100093.13;5124052;27;20019;-85
2023/03/26 09:03:57;;;;;;;8.95;2.97;;;;;;;9.91;84.23;100094.63;5123285;27;20059;-85
2023/03/26 09:06:53;;;;;;;10.18;2.75;;;;;;;9.93;84.04;100087.50;5138057;27;20034;-84
2023/03/26 09:09:39;;;;;;;10.13;3.45;;;;;;;9.94;84.09;100083.91;5129619;27;20661;-85
2023/03/26 09:12:17;;;;;;;8.57;2.65;;;;;;;9.99;83.67;100096.03;5120864;27;20078;-85
2023/03/26 09:15:14;;;;;;;9.38;2.20;;;;;;;10.06;83.81;100089.50;5128833;27;20015;-85
2023/03/26 09:17:55;;;;;;;9.52;2.13;;;;;;;10.03;83.26;100087.88;5123422;27;20117;-85
2023/03/26 09:20:40;;;;;;;4.85;1.88;;;;;;;10.05;82.79;100091.28;5131235;27;20035;-85
2023/03/26 09:23:52;;;;;;;6.22;2.17;;;;;;;10.14;83.23;100088.19;5129330;27;20470;-85
2023/03/26 09:26:25;;;;;;;6.43;1.98;;;;;;;10.10;82.47;100086.63;5116151;27;20498;-85
2023/03/26 09:29:20;;;;;;;6.53;2.60;;;;;;;10.10;82.43;100086.63;5132715;27;20568;-85
2023/03/26 09:32:13;;;;;;;8.35;3.25;;;;;;;10.12;83.09;100090.06;5129076;27;20035;-85
2023/03/26 09:34:58;;;;;;;8.73;3.03;;;;;;;10.10;83.77;100086.63;5126308;27;20034;-85
2023/03/26 09:37:23;;;;;;;11.13;3.00;;;;;;;10.13;82.46;100080.34;5134760;27;20023;-85
2023/03/26 09:40:10;;;;;;;7.65;2.28;;;;;;;10.15;83.82;100078.47;5116772;27;20035;-85
2023/03/26 09:42:48;;;;;;;6.35;2.08;;;;;;;10.16;82.60;100080.19;5127452;27;20092;-85
2023/03/26 09:45:16;;;;;;;3.47;2.05;;;;;;;10.13;81.67;100078.56;5115730;27;20034;-85
2023/03/26 09:48:19;;;;;;;4.47;2.08;;;;;;;10.23;81.39;100077.16;5126062;27;20777;-85
2023/03/26 09:50:53;;;;;;;;;;;;;;;10.36;81.15;100071.28;5131047;27;20018;-85
2023/03/26 09:53:50;;;;;;;5.03;2.03;;;;;;;10.33;81.12;100082.84;5133027;27;20271;-87
2023/03/26 09:56:31;;;;;;;7.18;2.60;;;;;;;10.27;81.70;100077.91;5129657;27;20394;-86
2023/03/26 09:59:19;;;;;;;5.97;2.78;;;;;;;10.28;81.22;100086.66;5119073;27;20023;-86
2023/03/26 10:01:56;;;;;;;7.05;2.90;;;;;;;10.25;81.36;100081.53;5125637;27;20035;-87
2023/03/26 10:04:25;;;;;;;5.13;2.90;;;;;;;10.34;81.83;100083.72;5136015;27;20023;-85
2023/03/26 10:06:59;;;;;;;7.78;3.17;;;;;;;10.43;81.51;100085.88;5125599;27;20026;-85
2023/03/26 10:09:37;;;;;;;6.35;3.17;;;;;;;10.52;81.07;100088.03;5117824;27;20019;-85
2023/03/26 10:12:17;;;;;;;7.93;2.60;;;;;;;10.71;81.33;100088.78;5133327;27;20023;-86
2023/03/26 10:15:07;;;;;;;5.03;2.30;;;;;;;10.82;80.52;100095.28;5119936;27;20026;-86
2023/03/26 10:17:49;;;;;;;5.78;2.05;;;;;;;10.77;80.22;100086.75;5125802;27;20059;-86
2023/03/26 10:20:36;;;;;;;4.80;1.60;;;;;;;10.78;78.49;100093.78;5120764;27;20038;-86
2023/03/26 10:23:40;;;;;;;4.78;2.42;;;;;;;10.77;79.03;100087.63;5117181;27;20035;-86
2023/03/26 10:26:40;;;;;;;2.85;1.80;;;;;;;10.64;78.61;100084.78;5125513;27;20082;-86
2023/03/26 10:29:12;;;;;;;7.43;2.55;;;;;;;10.61;79.45;100094.66;5136195;27;20027;-86
2023/03/26 10:32:04;;;;;;;5.80;2.38;;;;;;;10.70;79.29;100095.00;5113071;27;20035;-86
2023/03/26 10:34:48;;;;;;;7.43;1.92;;;;;;;10.75;78.40;100096.56;5120287;27;20019;-86
2023/03/26 10:37:32;;;;;;;6.03;2.20;;;;;;;10.70;78.18;100097.66;5143516;27;20027;-86
2023/03/26 10:40:08;;;;;;;4.70;2.10;;;;;;;10.62;78.25;100088.41;5142576;27;20665;-86
2023/03/26 10:43:12;;;;;;;6.20;2.40;;;;;;;10.63;78.52;100092.75;5123626;27;20054;-85
2023/03/26 10:45:52;;;;;;;5.40;1.63;;;;;;;10.46;78.37;100105.06;5040622;28;20040;-85
2023/03/26 10:48:35;;;;;;;5.20;1.88;;;;;;;10.47;79.21;100096.22;5065478;28;20043;-86
2023/03/26 10:51:32;;;;;;;2.75;1.50;;;;;;;10.41;78.70;100106.25;5100666;27;20516;-86
2023/03/26 10:54:06;;;;;;;5.60;1.90;;;;;;;10.44;79.03;100106.97;5109256;27;20031;-86
2023/03/26 10:56:37;;;;;;;3.55;1.83;;;;;;;10.47;79.17;100105.94;5116873;27;20497;-86
2023/03/26 10:59:10;;;;;;;4.70;1.67;;;;;;;10.53;78.95;100100.31;5123305;27;20043;-86
2023/03/26 11:01:50;;;;;;;5.22;2.03;;;;;;;10.63;78.53;100098.94;5127403;27;20383;-86
2023/03/26 11:04:18;;;;;;;4.32;1.67;;;;;;;10.65;78.50;100101.47;5111071;27;20114;-85
2023/03/26 11:06:52;;;;;;;2.63;1.30;;;;;;;10.62;77.36;100107.78;5126266;27;20031;-86
2023/03/26 11:09:29;;;;;;;3.90;1.75;;;;;;;10.58;77.00;100110.66;5120283;27;20022;-86
2023/03/26 11:12:01;;;;;;;3.70;1.60;;;;;;;10.51;77.15;100104.84;5114396;27;20048;-86
2023/03/26 11:15:25;;;;;;;6.43;1.95;;;;;;;10.67;78.40;100105.75;5118886;27;20079;-86
2023/03/26 11:18:06;;;;;;;5.97;1.67;;;;;;;10.84;76.35;100115.44;5045139;28;20481;-86
2023/03/26 11:20:49;;;;;;;5.77;1.83;;;;;;;11.02;76.89;100113.63;5125482;27;20092;-86
2023/03/26 11:23:34;;;;;;;3.40;2.00;;;;;;;10.98;76.90;100120.00;5132771;27;20330;-86
2023/03/26 11:26:14;;;;;;;3.42;1.75;;;;;;;10.99;76.46;100113.75;5112458;27;20066;-86
2023/03/26 11:29:06;;;;;;;3.33;1.60;;;;;;;11.04;76.78;100122.31;5137143;27;20067;-86
2023/03/26 11:31:41;;;;;;;3.25;1.60;;;;;;;10.85;76.56;100122.44;5125210;27;20023;-85
2023/03/26 11:34:17;;;;;;;3.42;1.58;;;;;;;10.82;76.85;100117.31;5122713;27;20536;-85
2023/03/26 11:36:49;;;;;;;3.78;1.60;;;;;;;10.84;78.10;100120.72;5123712;27;20023;-85
2023/03/26 11:39:22;;;;;;;4.53;1.73;;;;;;;10.86;77.92;100125.94;5123764;28;20034;-85
2023/03/26 11:41:51;;;;;;;5.85;1.55;;;;;;;10.84;79.43;100122.53;5126596;27;20054;-86
2023/03/26 11:44:42;;;;;;;4.68;1.52;;;;;;;11.02;77.90;100134.78;5115707;28;20023;-86
2023/03/26 11:47:11;;;;;;;3.38;1.60;;;;;;;11.05;76.93;100131.09;5120338;27;20024;-86
2023/03/26 11:49:36;;;;;;;4.65;1.58;;;;;;;11.10;77.33;100131.72;5123065;27;20023;-85
2023/03/26 11:52:02;;;;;;;5.05;1.55;;;;;;;11.18;76.80;100132.16;5118911;28;20038;-87
2023/03/26 11:54:28;;;;;;;4.10;1.60;;;;;;;11.19;75.45;100134.72;5111053;27;20232;-87